createdAt,value
2022-11-22T00:00:00.217Z,96120.00
2022-11-22T00:00:10.224Z,96119.00
2022-11-22T00:00:20.259Z,96120.00
2022-11-22T00:00:30.245Z,96120.00
2022-11-22T00:00:40.243Z,96122.00
2022-11-22T00:00:50.363Z,96120.00
2022-11-22T00:01:00.625Z,96122.00
2022-11-22T00:01:10.658Z,96120.00
2022-11-22T00:01:20.665Z,96119.00
2022-11-22T00:01:30.660Z,96119.00
2022-11-22T00:01:40.752Z,96120.00
2022-11-22T00:01:50.821Z,96120.00
2022-11-22T00:02:00.869Z,96120.00
2022-11-22T00:02:10.930Z,96120.00
2022-11-22T00:02:21.029Z,96122.00
2022-11-22T00:02:30.994Z,96120.00
2022-11-22T00:02:41.308Z,96120.00
2022-11-22T00:02:51.427Z,96120.00
2022-11-22T00:03:01.431Z,96119.00
2022-11-22T00:03:11.696Z,96122.00
2022-11-22T00:03:21.709Z,96119.00
2022-11-22T00:03:31.722Z,96119.00
2022-11-22T00:03:41.732Z,96119.00
2022-11-22T00:03:51.752Z,96120.00
2022-11-22T00:04:01.751Z,96120.00
2022-11-22T00:04:11.766Z,96119.00
2022-11-22T00:04:21.772Z,96119.00
2022-11-22T00:04:31.778Z,96119.00
2022-11-22T00:04:41.790Z,96122.00
2022-11-22T00:04:51.801Z,96119.00
2022-11-22T00:05:01.839Z,96119.00
2022-11-22T00:05:11.823Z,96119.00
2022-11-22T00:05:21.881Z,96117.00
2022-11-22T00:05:31.876Z,96113.00
2022-11-22T00:05:41.890Z,96115.00
2022-11-22T00:05:51.894Z,96117.00
2022-11-22T00:06:01.907Z,96117.00
2022-11-22T00:06:11.916Z,96119.00
2022-11-22T00:06:21.930Z,96117.00
2022-11-22T00:06:31.935Z,96119.00
2022-11-22T00:06:41.945Z,96117.00
2022-11-22T00:06:51.955Z,96117.00
2022-11-22T00:07:02.076Z,96119.00
2022-11-22T00:07:12.414Z,96119.00
2022-11-22T00:07:22.499Z,96122.00
2022-11-22T00:07:32.616Z,96120.00
2022-11-22T00:07:42.588Z,96120.00
2022-11-22T00:07:52.628Z,96122.00
2022-11-22T00:08:02.652Z,96120.00
2022-11-22T00:08:12.776Z,96120.00
2022-11-22T00:08:22.783Z,96119.00
2022-11-22T00:08:32.804Z,96119.00
2022-11-22T00:08:42.801Z,96120.00
2022-11-22T00:08:53.051Z,96119.00
2022-11-22T00:09:03.054Z,96124.00
2022-11-22T00:09:13.064Z,96122.00
2022-11-22T00:09:23.074Z,96122.00
2022-11-22T00:09:33.087Z,96122.00
2022-11-22T00:09:43.089Z,96122.00
2022-11-22T00:09:53.104Z,96124.00
2022-11-22T00:10:03.114Z,96122.00
2022-11-22T00:10:13.121Z,96124.00
2022-11-22T00:10:23.121Z,96124.00
2022-11-22T00:10:33.499Z,96122.00
2022-11-22T00:10:43.502Z,96124.00
2022-11-22T00:10:53.620Z,96122.00
2022-11-22T00:11:03.880Z,96124.00
2022-11-22T00:11:13.884Z,96124.00
2022-11-22T00:11:23.884Z,96124.00
2022-11-22T00:11:33.893Z,96126.00
2022-11-22T00:11:43.896Z,96128.00
2022-11-22T00:11:53.906Z,96128.00
2022-11-22T00:12:03.931Z,96128.00
2022-11-22T00:12:13.941Z,96130.00
2022-11-22T00:12:23.942Z,96128.00
2022-11-22T00:12:34.090Z,96128.00
2022-11-22T00:12:44.358Z,96128.00
2022-11-22T00:12:54.354Z,96128.00
2022-11-22T00:13:04.349Z,96128.00
2022-11-22T00:13:14.353Z,96128.00
2022-11-22T00:13:24.361Z,96128.00
2022-11-22T00:13:34.494Z,96128.00
2022-11-22T00:13:44.494Z,96128.00
2022-11-22T00:13:54.618Z,96128.00
2022-11-22T00:14:04.621Z,96128.00
2022-11-22T00:14:14.750Z,96128.00
2022-11-22T00:14:24.750Z,96128.00
2022-11-22T00:14:34.888Z,96132.00
2022-11-22T00:14:44.887Z,96132.00
2022-11-22T00:14:56.993Z,96132.00
2022-11-22T00:15:05.278Z,96130.00
2022-11-22T00:15:15.399Z,96132.00
2022-11-22T00:15:25.532Z,96132.00
2022-11-22T00:15:35.547Z,96132.00
2022-11-22T00:15:45.550Z,96134.00
2022-11-22T00:15:55.565Z,96134.00
2022-11-22T00:16:05.579Z,96136.00
2022-11-22T00:16:15.586Z,96140.00
2022-11-22T00:16:25.605Z,96138.00
2022-11-22T00:16:35.615Z,96140.00
2022-11-22T00:16:45.615Z,96138.00
2022-11-22T00:16:55.632Z,96140.00
2022-11-22T00:17:05.638Z,96138.00
2022-11-22T00:17:15.655Z,96138.00
2022-11-22T00:17:25.655Z,96138.00
2022-11-22T00:17:35.670Z,96138.00
2022-11-22T00:17:45.676Z,96136.00
2022-11-22T00:17:55.680Z,96136.00
2022-11-22T00:18:05.701Z,96136.00
2022-11-22T00:18:15.705Z,96138.00
2022-11-22T00:18:25.715Z,96134.00
2022-11-22T00:18:35.731Z,96136.00
2022-11-22T00:18:45.723Z,96138.00
2022-11-22T00:18:55.849Z,96140.00
2022-11-22T00:19:05.873Z,96142.00
2022-11-22T00:19:15.873Z,96142.00
2022-11-22T00:19:26.141Z,96144.00
2022-11-22T00:19:36.256Z,96146.00
2022-11-22T00:19:46.268Z,96146.00
2022-11-22T00:19:56.531Z,96146.00
2022-11-22T00:20:06.603Z,96146.00
2022-11-22T00:20:16.575Z,96150.00
2022-11-22T00:20:26.581Z,96146.00
2022-11-22T00:20:36.706Z,96148.00
2022-11-22T00:20:46.709Z,96144.00
2022-11-22T00:20:56.845Z,96142.00
2022-11-22T00:21:06.855Z,96142.00
2022-11-22T00:21:16.973Z,96142.00
2022-11-22T00:21:26.974Z,96144.00
2022-11-22T00:21:37.115Z,96144.00
2022-11-22T00:21:47.117Z,96144.00
2022-11-22T00:21:57.123Z,96146.00
2022-11-22T00:22:07.393Z,96146.00
2022-11-22T00:22:17.514Z,96146.00
2022-11-22T00:22:27.514Z,96146.00
2022-11-22T00:22:43.995Z,96148.00
2022-11-22T00:22:47.773Z,96144.00
2022-11-22T00:22:57.785Z,96144.00
2022-11-22T00:23:07.787Z,96146.00
2022-11-22T00:23:17.792Z,96146.00
2022-11-22T00:23:27.794Z,96146.00
2022-11-22T00:23:37.917Z,96148.00
2022-11-22T00:23:47.928Z,96150.00
2022-11-22T00:23:57.947Z,96146.00
2022-11-22T00:24:07.957Z,96146.00
2022-11-22T00:24:17.963Z,96148.00
2022-11-22T00:24:27.970Z,96150.00
2022-11-22T00:24:37.982Z,96152.00
2022-11-22T00:24:47.995Z,96152.00
2022-11-22T00:24:58.123Z,96150.00
2022-11-22T00:25:08.131Z,96150.00
2022-11-22T00:25:18.388Z,96150.00
2022-11-22T00:25:28.507Z,96148.00
2022-11-22T00:25:38.514Z,96148.00
2022-11-22T00:25:48.803Z,96146.00
2022-11-22T00:25:58.799Z,96148.00
2022-11-22T00:26:08.919Z,96148.00
2022-11-22T00:26:19.180Z,96146.00
2022-11-22T00:26:29.296Z,96146.00
2022-11-22T00:26:39.307Z,96146.00
2022-11-22T00:26:49.565Z,96148.00
2022-11-22T00:26:59.565Z,96150.00
2022-11-22T00:27:09.574Z,96148.00
2022-11-22T00:27:19.584Z,96150.00
2022-11-22T00:27:29.611Z,96150.00
2022-11-22T00:27:39.608Z,96150.00
2022-11-22T00:27:49.614Z,96150.00
2022-11-22T00:27:59.620Z,96150.00
2022-11-22T00:28:09.628Z,96150.00
2022-11-22T00:28:19.638Z,96152.00
2022-11-22T00:28:29.633Z,96152.00
2022-11-22T00:28:39.638Z,96152.00
2022-11-22T00:28:49.768Z,96150.00
2022-11-22T00:28:59.779Z,96150.00
2022-11-22T00:29:09.794Z,96152.00
2022-11-22T00:29:19.803Z,96150.00
2022-11-22T00:29:30.029Z,96152.00
2022-11-22T00:29:40.060Z,96148.00
2022-11-22T00:29:50.179Z,96150.00
2022-11-22T00:30:00.178Z,96150.00
2022-11-22T00:30:10.455Z,96148.00
2022-11-22T00:30:20.457Z,96152.00
2022-11-22T00:30:30.599Z,96150.00
2022-11-22T00:30:40.858Z,96150.00
2022-11-22T00:30:50.862Z,96148.00
2022-11-22T00:31:00.884Z,96152.00
2022-11-22T00:31:10.876Z,96150.00
2022-11-22T00:31:20.885Z,96150.00
2022-11-22T00:31:30.901Z,96150.00
2022-11-22T00:31:40.995Z,96152.00
2022-11-22T00:31:51.002Z,96152.00
2022-11-22T00:32:01.007Z,96152.00
2022-11-22T00:32:11.017Z,96152.00
2022-11-22T00:32:21.018Z,96154.00
2022-11-22T00:32:31.143Z,96154.00
2022-11-22T00:32:41.166Z,96152.00
2022-11-22T00:32:51.185Z,96154.00
2022-11-22T00:33:01.189Z,96154.00
2022-11-22T00:33:11.206Z,96154.00
2022-11-22T00:33:21.206Z,96152.00
2022-11-22T00:33:31.469Z,96152.00
2022-11-22T00:33:41.472Z,96154.00
2022-11-22T00:33:51.478Z,96154.00
2022-11-22T00:34:01.481Z,96154.00
2022-11-22T00:34:11.506Z,96154.00
2022-11-22T00:34:21.504Z,96152.00
2022-11-22T00:34:31.624Z,96152.00
2022-11-22T00:34:41.629Z,96154.00
2022-11-22T00:34:51.778Z,96154.00
2022-11-22T00:35:01.756Z,96154.00
2022-11-22T00:35:11.921Z,96154.00
2022-11-22T00:35:21.913Z,96154.00
2022-11-22T00:35:32.030Z,96156.00
2022-11-22T00:35:42.300Z,96156.00
2022-11-22T00:35:52.424Z,96156.00
2022-11-22T00:36:02.422Z,96156.00
2022-11-22T00:36:12.670Z,96154.00
2022-11-22T00:36:22.683Z,96156.00
2022-11-22T00:36:32.710Z,96156.00
2022-11-22T00:36:42.707Z,96156.00
2022-11-22T00:36:52.715Z,96152.00
2022-11-22T00:37:02.775Z,96152.00
2022-11-22T00:37:12.768Z,96154.00
2022-11-22T00:37:22.784Z,96156.00
2022-11-22T00:37:32.793Z,96152.00
2022-11-22T00:37:42.797Z,96152.00
2022-11-22T00:37:52.791Z,96152.00
2022-11-22T00:38:02.802Z,96150.00
2022-11-22T00:38:12.801Z,96152.00
2022-11-22T00:38:22.804Z,96150.00
2022-11-22T00:38:32.822Z,96152.00
2022-11-22T00:38:42.826Z,96150.00
2022-11-22T00:38:52.835Z,96150.00
2022-11-22T00:39:02.834Z,96150.00
2022-11-22T00:39:12.962Z,96150.00
2022-11-22T00:39:22.960Z,96150.00
2022-11-22T00:39:33.183Z,96152.00
2022-11-22T00:39:43.063Z,96152.00
2022-11-22T00:39:53.182Z,96148.00
2022-11-22T00:40:03.193Z,96150.00
2022-11-22T00:40:13.322Z,96148.00
2022-11-22T00:40:23.320Z,96148.00
2022-11-22T00:40:33.332Z,96148.00
2022-11-22T00:40:43.344Z,96148.00
2022-11-22T00:40:53.353Z,96148.00
2022-11-22T00:41:03.365Z,96148.00
2022-11-22T00:41:13.367Z,96148.00
2022-11-22T00:41:23.383Z,96150.00
2022-11-22T00:41:33.389Z,96146.00
2022-11-22T00:41:43.396Z,96148.00
2022-11-22T00:41:53.412Z,96148.00
2022-11-22T00:42:03.429Z,96148.00
2022-11-22T00:42:13.451Z,96146.00
2022-11-22T00:42:23.453Z,96148.00
2022-11-22T00:42:33.470Z,96148.00
2022-11-22T00:42:43.471Z,96144.00
2022-11-22T00:42:53.478Z,96146.00
2022-11-22T00:43:03.479Z,96146.00
2022-11-22T00:43:13.504Z,96148.00
2022-11-22T00:43:23.510Z,96150.00
2022-11-22T00:43:33.513Z,96148.00
2022-11-22T00:43:43.532Z,96150.00
2022-11-22T00:43:53.540Z,96148.00
2022-11-22T00:44:03.541Z,96150.00
2022-11-22T00:44:13.550Z,96150.00
2022-11-22T00:44:23.583Z,96150.00
2022-11-22T00:44:33.575Z,96150.00
2022-11-22T00:44:43.576Z,96150.00
2022-11-22T00:44:53.701Z,96148.00
2022-11-22T00:45:03.702Z,96148.00
2022-11-22T00:45:13.714Z,96150.00
2022-11-22T00:45:23.982Z,96148.00
2022-11-22T00:45:34.005Z,96150.00
2022-11-22T00:45:44.006Z,96146.00
2022-11-22T00:45:54.387Z,96148.00
2022-11-22T00:46:04.398Z,96150.00
2022-11-22T00:46:14.391Z,96148.00
2022-11-22T00:46:24.392Z,96148.00
2022-11-22T00:46:34.399Z,96150.00
2022-11-22T00:46:44.403Z,96148.00
2022-11-22T00:46:54.416Z,96148.00
2022-11-22T00:47:04.436Z,96146.00
2022-11-22T00:47:14.438Z,96148.00
2022-11-22T00:47:24.441Z,96148.00
2022-11-22T00:47:34.453Z,96148.00
2022-11-22T00:47:44.469Z,96148.00
2022-11-22T00:47:54.582Z,96150.00
2022-11-22T00:48:04.591Z,96152.00
2022-11-22T00:48:14.599Z,96150.00
2022-11-22T00:48:24.605Z,96150.00
2022-11-22T00:48:34.612Z,96150.00
2022-11-22T00:48:44.880Z,96152.00
2022-11-22T00:48:55.006Z,96152.00
2022-11-22T00:49:05.106Z,96150.00
2022-11-22T00:49:15.241Z,96150.00
2022-11-22T00:49:25.251Z,96154.00
2022-11-22T00:49:35.258Z,96152.00
2022-11-22T00:49:45.259Z,96150.00
2022-11-22T00:49:55.382Z,96150.00
2022-11-22T00:50:05.385Z,96148.00
2022-11-22T00:50:15.532Z,96150.00
2022-11-22T00:50:25.573Z,96148.00
2022-11-22T00:50:35.695Z,96150.00
2022-11-22T00:50:45.697Z,96152.00
2022-11-22T00:50:55.707Z,96152.00
2022-11-22T00:51:05.705Z,96154.00
2022-11-22T00:51:15.709Z,96152.00
2022-11-22T00:51:25.722Z,96152.00
2022-11-22T00:51:35.731Z,96152.00
2022-11-22T00:51:45.742Z,96152.00
2022-11-22T00:51:55.732Z,96154.00
2022-11-22T00:52:05.738Z,96152.00
2022-11-22T00:52:15.876Z,96152.00
2022-11-22T00:52:25.881Z,96154.00
2022-11-22T00:52:36.136Z,96152.00
2022-11-22T00:52:46.140Z,96152.00
2022-11-22T00:52:56.140Z,96154.00
2022-11-22T00:53:06.141Z,96156.00
2022-11-22T00:53:16.150Z,96152.00
2022-11-22T00:53:26.159Z,96156.00
2022-11-22T00:53:36.165Z,96156.00
2022-11-22T00:53:46.165Z,96154.00
2022-11-22T00:53:56.171Z,96154.00
2022-11-22T00:54:06.179Z,96154.00
2022-11-22T00:54:16.559Z,96156.00
2022-11-22T00:54:26.564Z,96156.00
2022-11-22T00:54:36.580Z,96154.00
2022-11-22T00:54:51.449Z,96156.00
2022-11-22T00:54:56.706Z,96158.00
2022-11-22T00:55:06.706Z,96160.00
2022-11-22T00:55:16.714Z,96158.00
2022-11-22T00:55:26.724Z,96160.00
2022-11-22T00:55:36.739Z,96158.00
2022-11-22T00:55:46.745Z,96158.00
2022-11-22T00:55:56.757Z,96158.00
2022-11-22T00:56:06.766Z,96156.00
2022-11-22T00:56:16.788Z,96158.00
2022-11-22T00:56:26.783Z,96160.00
2022-11-22T00:56:36.793Z,96162.00
2022-11-22T00:56:46.792Z,96160.00
2022-11-22T00:56:56.826Z,96162.00
2022-11-22T00:57:06.822Z,96162.00
2022-11-22T00:57:16.837Z,96166.00
2022-11-22T00:57:26.845Z,96166.00
2022-11-22T00:57:36.872Z,96164.00
2022-11-22T00:57:46.868Z,96162.00
2022-11-22T00:57:56.897Z,96164.00
2022-11-22T00:58:06.919Z,96162.00
2022-11-22T00:58:16.929Z,96164.00
2022-11-22T00:58:26.936Z,96164.00
2022-11-22T00:58:36.928Z,96164.00
2022-11-22T00:58:46.941Z,96164.00
2022-11-22T00:58:57.067Z,96164.00
2022-11-22T00:59:07.082Z,96162.00
2022-11-22T00:59:17.095Z,96162.00
2022-11-22T00:59:27.417Z,96162.00
2022-11-22T00:59:37.191Z,96162.00
2022-11-22T00:59:47.320Z,96162.00
2022-11-22T00:59:57.458Z,96164.00
2022-11-22T01:00:07.454Z,96164.00
2022-11-22T01:00:17.717Z,96166.00
2022-11-22T01:00:27.732Z,96166.00
2022-11-22T01:00:37.827Z,96162.00
2022-11-22T01:00:52.103Z,96166.00
2022-11-22T01:00:58.302Z,96166.00
2022-11-22T01:01:08.417Z,96166.00
2022-11-22T01:01:18.556Z,96169.00
2022-11-22T01:01:28.520Z,96167.00
2022-11-22T01:01:38.471Z,96169.00
2022-11-22T01:01:48.565Z,96169.00
2022-11-22T01:01:58.569Z,96169.00
2022-11-22T01:02:08.572Z,96169.00
2022-11-22T01:02:18.948Z,96169.00
2022-11-22T01:02:28.951Z,96169.00
2022-11-22T01:02:39.092Z,96169.00
2022-11-22T01:02:49.346Z,96167.00
2022-11-22T01:02:59.347Z,96167.00
2022-11-22T01:03:09.357Z,96167.00
2022-11-22T01:03:19.349Z,96171.00
2022-11-22T01:03:29.374Z,96167.00
2022-11-22T01:03:39.396Z,96171.00
2022-11-22T01:03:49.388Z,96169.00
2022-11-22T01:03:59.408Z,96171.00
2022-11-22T01:04:09.398Z,96169.00
2022-11-22T01:04:19.518Z,96171.00
2022-11-22T01:04:29.776Z,96173.00
2022-11-22T01:04:39.910Z,96171.00
2022-11-22T01:04:49.919Z,96171.00
2022-11-22T01:05:00.170Z,96171.00
2022-11-22T01:05:10.173Z,96169.00
2022-11-22T01:05:20.207Z,96171.00
2022-11-22T01:05:30.175Z,96169.00
2022-11-22T01:05:40.298Z,96169.00
2022-11-22T01:05:50.297Z,96173.00
2022-11-22T01:06:00.306Z,96173.00
2022-11-22T01:06:10.325Z,96173.00
2022-11-22T01:06:20.446Z,96173.00
2022-11-22T01:06:30.447Z,96173.00
2022-11-22T01:06:40.599Z,96181.00
2022-11-22T01:06:50.597Z,96181.00
2022-11-22T01:07:00.719Z,96181.00
2022-11-22T01:07:11.052Z,96183.00
2022-11-22T01:07:21.116Z,96183.00
2022-11-22T01:07:31.166Z,96181.00
2022-11-22T01:07:41.363Z,96183.00
2022-11-22T01:07:51.311Z,96183.00
2022-11-22T01:08:01.340Z,96181.00
2022-11-22T01:08:11.455Z,96181.00
2022-11-22T01:08:21.461Z,96183.00
2022-11-22T01:08:31.582Z,96173.00
2022-11-22T01:08:41.585Z,96183.00
2022-11-22T01:08:51.838Z,96181.00
2022-11-22T01:09:01.855Z,96173.00
2022-11-22T01:09:11.861Z,96173.00
2022-11-22T01:09:21.857Z,96181.00
2022-11-22T01:09:32.273Z,96173.00
2022-11-22T01:09:41.973Z,96171.00
2022-11-22T01:09:51.989Z,96173.00
2022-11-22T01:10:02.006Z,96173.00
2022-11-22T01:10:11.999Z,96173.00
2022-11-22T01:10:22.032Z,96181.00
2022-11-22T01:10:32.034Z,96173.00
2022-11-22T01:10:42.048Z,96173.00
2022-11-22T01:10:52.042Z,96171.00
2022-11-22T01:11:02.062Z,96171.00
2022-11-22T01:11:12.092Z,96169.00
2022-11-22T01:11:22.077Z,96169.00
2022-11-22T01:11:32.079Z,96169.00
2022-11-22T01:11:42.103Z,96169.00
2022-11-22T01:11:52.110Z,96171.00
2022-11-22T01:12:02.111Z,96171.00
2022-11-22T01:12:12.123Z,96171.00
2022-11-22T01:12:22.132Z,96171.00
2022-11-22T01:12:32.217Z,96171.00
2022-11-22T01:12:42.222Z,96173.00
2022-11-22T01:12:52.598Z,96171.00
2022-11-22T01:13:02.611Z,96181.00
2022-11-22T01:13:12.618Z,96173.00
2022-11-22T01:13:22.649Z,96173.00
2022-11-22T01:13:32.774Z,96169.00
2022-11-22T01:13:42.774Z,96181.00
2022-11-22T01:13:52.778Z,96173.00
2022-11-22T01:14:02.827Z,96171.00
2022-11-22T01:14:12.815Z,96171.00
2022-11-22T01:14:22.818Z,96173.00
2022-11-22T01:14:33.067Z,96171.00
2022-11-22T01:14:43.101Z,96171.00
2022-11-22T01:14:53.102Z,96171.00
2022-11-22T01:15:03.094Z,96169.00
2022-11-22T01:15:13.122Z,96171.00
2022-11-22T01:15:23.124Z,96169.00
2022-11-22T01:15:33.124Z,96171.00
2022-11-22T01:15:43.132Z,96169.00
2022-11-22T01:15:53.146Z,96173.00
2022-11-22T01:16:03.146Z,96169.00
2022-11-22T01:16:13.538Z,96169.00
2022-11-22T01:16:23.536Z,96171.00
2022-11-22T01:16:33.539Z,96171.00
2022-11-22T01:16:43.552Z,96171.00
2022-11-22T01:16:53.548Z,96171.00
2022-11-22T01:17:03.559Z,96171.00
2022-11-22T01:17:13.677Z,96173.00
2022-11-22T01:17:23.679Z,96171.00
2022-11-22T01:17:33.684Z,96171.00
2022-11-22T01:17:43.688Z,96169.00
2022-11-22T01:17:53.944Z,96173.00
2022-11-22T01:18:03.948Z,96171.00
2022-11-22T01:18:14.072Z,96169.00
2022-11-22T01:18:24.336Z,96169.00
2022-11-22T01:18:34.349Z,96169.00
2022-11-22T01:18:44.349Z,96167.00
2022-11-22T01:18:54.362Z,96169.00
2022-11-22T01:19:04.373Z,96169.00
2022-11-22T01:19:14.396Z,96167.00
2022-11-22T01:19:24.409Z,96167.00
2022-11-22T01:19:34.513Z,96171.00
2022-11-22T01:19:44.536Z,96169.00
2022-11-22T01:19:54.556Z,96166.00
2022-11-22T01:20:04.813Z,96169.00
2022-11-22T01:20:14.938Z,96169.00
2022-11-22T01:20:24.973Z,96169.00
2022-11-22T01:20:35.204Z,96169.00
2022-11-22T01:20:45.224Z,96167.00
2022-11-22T01:20:55.336Z,96164.00
2022-11-22T01:21:05.607Z,96169.00
2022-11-22T01:21:15.599Z,96169.00
2022-11-22T01:21:25.610Z,96167.00
2022-11-22T01:21:35.619Z,96169.00
2022-11-22T01:21:45.630Z,96169.00
2022-11-22T01:21:55.639Z,96169.00
2022-11-22T01:22:05.649Z,96167.00
2022-11-22T01:22:15.660Z,96171.00
2022-11-22T01:22:25.678Z,96169.00
2022-11-22T01:22:35.811Z,96169.00
2022-11-22T01:22:46.072Z,96171.00
2022-11-22T01:22:56.075Z,96169.00
2022-11-22T01:23:06.111Z,96169.00
2022-11-22T01:23:16.121Z,96171.00
2022-11-22T01:23:26.130Z,96173.00
2022-11-22T01:23:36.143Z,96171.00
2022-11-22T01:23:46.154Z,96173.00
2022-11-22T01:23:56.158Z,96173.00
2022-11-22T01:24:06.168Z,96181.00
2022-11-22T01:24:16.163Z,96173.00
2022-11-22T01:24:26.171Z,96173.00
2022-11-22T01:24:36.173Z,96181.00
2022-11-22T01:24:46.189Z,96173.00
2022-11-22T01:24:56.186Z,96181.00
2022-11-22T01:25:06.196Z,96173.00
2022-11-22T01:25:16.224Z,96181.00
2022-11-22T01:25:26.224Z,96181.00
2022-11-22T01:25:36.605Z,96173.00
2022-11-22T01:25:46.610Z,96173.00
2022-11-22T01:25:56.726Z,96181.00
2022-11-22T01:26:06.992Z,96181.00
2022-11-22T01:26:17.119Z,96181.00
2022-11-22T01:26:27.125Z,96181.00
2022-11-22T01:26:37.394Z,96183.00
2022-11-22T01:26:47.394Z,96183.00
2022-11-22T01:26:57.408Z,96183.00
2022-11-22T01:27:07.414Z,96185.00
2022-11-22T01:27:17.434Z,96183.00
2022-11-22T01:27:27.435Z,96183.00
2022-11-22T01:27:37.438Z,96183.00
2022-11-22T01:27:47.454Z,96183.00
2022-11-22T01:27:57.470Z,96183.00
2022-11-22T01:28:07.483Z,96183.00
2022-11-22T01:28:17.485Z,96181.00
2022-11-22T01:28:27.494Z,96183.00
2022-11-22T01:28:37.513Z,96183.00
2022-11-22T01:28:47.508Z,96183.00
2022-11-22T01:28:57.516Z,96185.00
2022-11-22T01:29:07.536Z,96185.00
2022-11-22T01:29:17.545Z,96187.00
2022-11-22T01:29:27.781Z,96187.00
2022-11-22T01:29:37.618Z,96185.00
2022-11-22T01:29:47.623Z,96189.00
2022-11-22T01:29:57.626Z,96187.00
2022-11-22T01:30:07.629Z,96187.00
2022-11-22T01:30:17.639Z,96185.00
2022-11-22T01:30:27.651Z,96183.00
2022-11-22T01:30:37.660Z,96185.00
2022-11-22T01:30:47.670Z,96185.00
2022-11-22T01:30:57.802Z,96185.00
2022-11-22T01:31:07.808Z,96187.00
2022-11-22T01:31:18.072Z,96187.00
2022-11-22T01:31:28.090Z,96187.00
2022-11-22T01:31:38.083Z,96189.00
2022-11-22T01:31:48.095Z,96189.00
2022-11-22T01:31:58.114Z,96189.00
2022-11-22T01:32:08.117Z,96189.00
2022-11-22T01:32:18.121Z,96191.00
2022-11-22T01:32:28.136Z,96189.00
2022-11-22T01:32:38.150Z,96187.00
2022-11-22T01:32:48.156Z,96189.00
2022-11-22T01:32:58.171Z,96185.00
2022-11-22T01:33:08.174Z,96187.00
2022-11-22T01:33:18.188Z,96189.00
2022-11-22T01:33:28.192Z,96185.00
2022-11-22T01:33:38.190Z,96189.00
2022-11-22T01:33:48.190Z,96187.00
2022-11-22T01:33:58.311Z,96189.00
2022-11-22T01:34:08.607Z,96187.00
2022-11-22T01:34:18.604Z,96187.00
2022-11-22T01:34:28.607Z,96191.00
2022-11-22T01:34:38.985Z,96191.00
2022-11-22T01:34:49.014Z,96193.00
2022-11-22T01:34:59.143Z,96191.00
2022-11-22T01:35:10.643Z,96193.00
2022-11-22T01:35:19.423Z,96195.00
2022-11-22T01:35:29.471Z,96189.00
2022-11-22T01:35:39.439Z,96191.00
2022-11-22T01:35:49.452Z,96187.00
2022-11-22T01:35:59.449Z,96187.00
2022-11-22T01:36:09.453Z,96189.00
2022-11-22T01:36:19.478Z,96187.00
2022-11-22T01:36:29.478Z,96189.00
2022-11-22T01:36:39.486Z,96189.00
2022-11-22T01:36:49.494Z,96191.00
2022-11-22T01:36:59.515Z,96189.00
2022-11-22T01:37:09.525Z,96187.00
2022-11-22T01:37:19.527Z,96187.00
2022-11-22T01:37:29.535Z,96187.00
2022-11-22T01:37:39.563Z,96189.00
2022-11-22T01:37:49.565Z,96187.00
2022-11-22T01:37:59.569Z,96187.00
2022-11-22T01:38:09.583Z,96185.00
2022-11-22T01:38:19.585Z,96187.00
2022-11-22T01:38:29.610Z,96187.00
2022-11-22T01:38:39.610Z,96187.00
2022-11-22T01:38:49.610Z,96189.00
2022-11-22T01:38:59.731Z,96189.00
2022-11-22T01:39:10.008Z,96191.00
2022-11-22T01:39:20.006Z,96189.00
2022-11-22T01:39:30.194Z,96191.00
2022-11-22T01:39:40.038Z,96191.00
2022-11-22T01:39:50.046Z,96191.00
2022-11-22T01:40:00.186Z,96193.00
2022-11-22T01:40:10.168Z,96193.00
2022-11-22T01:40:20.302Z,96197.00
2022-11-22T01:40:30.313Z,96191.00
2022-11-22T01:40:40.328Z,96197.00
2022-11-22T01:40:50.473Z,96193.00
2022-11-22T01:41:00.482Z,96195.00
2022-11-22T01:41:10.492Z,96195.00
2022-11-22T01:41:20.505Z,96195.00
2022-11-22T01:41:30.513Z,96195.00
2022-11-22T01:41:40.527Z,96197.00
2022-11-22T01:41:50.532Z,96197.00
2022-11-22T01:42:00.541Z,96197.00
2022-11-22T01:42:10.552Z,96195.00
2022-11-22T01:42:20.549Z,96195.00
2022-11-22T01:42:30.547Z,96197.00
2022-11-22T01:42:40.684Z,96199.00
2022-11-22T01:42:50.695Z,96197.00
2022-11-22T01:43:00.705Z,96199.00
2022-11-22T01:43:10.712Z,96199.00
2022-11-22T01:43:20.834Z,96197.00
2022-11-22T01:43:30.836Z,96199.00
2022-11-22T01:43:40.962Z,96201.00
2022-11-22T01:43:50.965Z,96199.00
2022-11-22T01:44:01.090Z,96199.00
2022-11-22T01:44:11.349Z,96199.00
2022-11-22T01:44:21.356Z,96199.00
2022-11-22T01:44:31.360Z,96199.00
2022-11-22T01:44:41.372Z,96199.00
2022-11-22T01:44:51.385Z,96199.00
2022-11-22T01:45:01.398Z,96199.00
2022-11-22T01:45:11.401Z,96197.00
2022-11-22T01:45:21.411Z,96199.00
2022-11-22T01:45:31.439Z,96197.00
2022-11-22T01:45:41.492Z,96199.00
2022-11-22T01:45:51.500Z,96199.00
2022-11-22T01:46:01.501Z,96199.00
2022-11-22T01:46:11.508Z,96199.00
2022-11-22T01:46:21.507Z,96199.00
2022-11-22T01:46:31.513Z,96197.00
2022-11-22T01:46:41.649Z,96199.00
2022-11-22T01:46:51.700Z,96197.00
2022-11-22T01:47:01.964Z,96199.00
2022-11-22T01:47:11.990Z,96199.00
2022-11-22T01:47:22.006Z,96199.00
2022-11-22T01:47:32.023Z,96197.00
2022-11-22T01:47:42.029Z,96199.00
2022-11-22T01:47:52.030Z,96199.00
2022-11-22T01:48:02.147Z,96199.00
2022-11-22T01:48:12.154Z,96197.00
2022-11-22T01:48:22.157Z,96197.00
2022-11-22T01:48:32.275Z,96199.00
2022-11-22T01:48:42.410Z,96197.00
2022-11-22T01:48:52.413Z,96197.00
2022-11-22T01:49:02.545Z,96195.00
2022-11-22T01:49:12.804Z,96197.00
2022-11-22T01:49:22.810Z,96195.00
2022-11-22T01:49:32.998Z,96195.00
2022-11-22T01:49:42.822Z,96199.00
2022-11-22T01:49:52.837Z,96195.00
2022-11-22T01:50:02.875Z,96197.00
2022-11-22T01:50:12.854Z,96197.00
2022-11-22T01:50:22.978Z,96195.00
2022-11-22T01:50:33.016Z,96197.00
2022-11-22T01:50:42.990Z,96197.00
2022-11-22T01:50:53.256Z,96197.00
2022-11-22T01:51:03.257Z,96195.00
2022-11-22T01:51:13.258Z,96197.00
2022-11-22T01:51:23.268Z,96197.00
2022-11-22T01:51:33.286Z,96197.00
2022-11-22T01:51:43.294Z,96199.00
2022-11-22T01:51:53.333Z,96197.00
2022-11-22T01:52:03.343Z,96197.00
2022-11-22T01:52:13.465Z,96197.00
2022-11-22T01:52:23.465Z,96197.00
2022-11-22T01:52:33.719Z,96193.00
2022-11-22T01:52:43.721Z,96199.00
2022-11-22T01:52:53.843Z,96197.00
2022-11-22T01:53:04.108Z,96195.00
2022-11-22T01:53:14.229Z,96197.00
2022-11-22T01:53:24.237Z,96199.00
2022-11-22T01:53:34.502Z,96197.00
2022-11-22T01:53:44.507Z,96199.00
2022-11-22T01:53:54.525Z,96197.00
2022-11-22T01:54:04.523Z,96197.00
2022-11-22T01:54:14.660Z,96197.00
2022-11-22T01:54:24.656Z,96195.00
2022-11-22T01:54:34.660Z,96197.00
2022-11-22T01:54:44.668Z,96197.00
2022-11-22T01:54:54.680Z,96197.00
2022-11-22T01:55:04.699Z,96197.00
2022-11-22T01:55:14.956Z,96197.00
2022-11-22T01:55:24.955Z,96197.00
2022-11-22T01:55:34.960Z,96199.00
2022-11-22T01:55:44.964Z,96197.00
2022-11-22T01:55:54.974Z,96201.00
2022-11-22T01:56:04.986Z,96201.00
2022-11-22T01:56:14.997Z,96199.00
2022-11-22T01:56:25.015Z,96197.00
2022-11-22T01:56:35.022Z,96199.00
2022-11-22T01:56:45.027Z,96201.00
2022-11-22T01:56:56.053Z,96201.00
2022-11-22T01:57:05.143Z,96199.00
2022-11-22T01:57:15.192Z,96199.00
2022-11-22T01:57:25.254Z,96199.00
2022-11-22T01:57:35.234Z,96199.00
2022-11-22T01:57:45.258Z,96197.00
2022-11-22T01:57:55.264Z,96197.00